Startpagina
METAR-TAF:

METAR-TAF

Vliegvelden :

Brussels Airport. Zaventem

Brussel, België

breedte: 50-54N, lengte: 004-32E, hoogte: 55 m

Actueel weer

Dit bericht is 19 minuten geleden gemaakt, om 18:50 UTC
Wind 4 kt uit het noordnoordoosten
Temperatuur 25°C
Vochtigheid 41%
Druk 1014 hPa
Zicht 10 km of meer
geen wolken onder 1500 m en geen cumulonimbus

METAR: EBBR 151850Z 02004KT CAVOK 25/11 Q1014 NOSIG

Tijdstip: 21:09 (19:09 UTC)

Verwachting

Dit bericht is 2 uur en het 9 minuten geleden gemaakt, om 17:00 UTC
Verwachting geldig van 15 om 18 UTC tot 16 om 24 UTC
Wind 4 kt uit het noordnoordoosten
Zicht 10 km of meer
Weinig wolken op 4500 ft
Kans 30% :
Tijdelijke
van 16 om 17 UTC tot 16 om 22 UTC
Zicht: 3000 m
onweer, regen

TAF: EBBR 151700Z 1518/1624 03004KT 9999 FEW045 PROB30 TEMPO 1617/1622 3000 TSRA

Waarnemingen en weersverwachtingen van meer dan 4000 vliegvelden (METAR en TAF).

De beschikbare stations zijn de gele en rode punten op de kaart.

Ga met uw muis naar het station om de naam te zien.

Klik dan om waarnemingen en weersverwachtingen te zien.

kaart wijzigen: klik op de groene knoppen met een zwart kruis om in te zoomen, op de groene knop met een streepje om uit te zoomen of op de groene pijlen voor aangrenzende kaarten.


METAR-TAF: